Terminal Aerodrome Forecast
Issued by NWS King Salmon, AK

Home | Current Version | Previous Version | Text Only | Print | Product List | Glossary On
Versions: 1 2 3 4 5 6 7 8 9 10 11 12 13 14 15 16
000
FTAK31 PANC 291034 AAA
TAFAKN
TAF AMD
PAKN 291034Z 2911/3006 18004KT 3SM BR SCT009 OVC011
      TEMPO 2911/2915 1SM BR SCT005 OVC009
     FM292000 VRB05KT P6SM BKN012
     FM300200 22008KT P6SM SCT012 SCT025=

USA.gov is the U.S. government's official web portal to all federal, state and local government web resources and services.